Time;durP1;ratioP1;P1;durP2;ratioP2;P2;SDS_P1;SDS_P2;PMS_P1;PMS_P2;Temp;Humidity;BMP_temperature;BMP_pressure;BME280_temperature;BME280_humidity;BME280_pressure;Samples;Min_cycle;Max_cycle;Signal;HPM_P1;HPM_P2
2021/06/06 00:01:18;;;;;;;39.25;26.38;;;;;;;13.78;98.08;102313.50;5105788;28;20023;-62
2021/06/06 00:03:48;;;;;;;39.90;28.63;;;;;;;13.57;98.91;102312.31;5102755;28;20024;-62
2021/06/06 00:06:26;;;;;;;40.78;28.85;;;;;;;13.42;100.00;102312.06;5105124;28;20036;-62
2021/06/06 00:08:52;;;;;;;42.50;29.20;;;;;;;13.38;100.00;102311.16;5098567;28;20073;-62
2021/06/06 00:11:23;;;;;;;43.55;30.88;;;;;;;13.34;100.00;102301.34;5105205;28;20023;-62
2021/06/06 00:13:50;;;;;;;40.47;28.40;;;;;;;13.46;100.00;102302.41;5097907;28;20023;-62
2021/06/06 00:16:27;;;;;;;40.08;28.17;;;;;;;13.52;100.00;102306.03;5105189;28;20032;-62
2021/06/06 00:18:52;;;;;;;40.72;29.60;;;;;;;13.38;100.00;102302.25;5098370;28;20016;-62
2021/06/06 00:21:20;;;;;;;41.03;30.27;;;;;;;13.35;100.00;102299.56;5105580;28;20561;-62
2021/06/06 00:23:46;;;;;;;41.78;29.98;;;;;;;13.42;100.00;102297.03;5102448;28;20038;-62
2021/06/06 00:26:11;;;;;;;42.35;30.50;;;;;;;13.35;100.00;102300.47;5104361;28;20471;-62
2021/06/06 00:28:37;;;;;;;44.63;32.30;;;;;;;13.35;100.00;102300.47;5103453;28;20401;-62
2021/06/06 00:31:05;;;;;;;42.40;32.25;;;;;;;13.34;100.00;102292.41;5103101;28;20479;-62
2021/06/06 00:33:31;;;;;;;43.75;32.33;;;;;;;13.41;100.00;102304.97;5104064;28;20023;-62
2021/06/06 00:35:57;;;;;;;43.72;34.13;;;;;;;13.36;100.00;102293.38;5102350;28;20032;-62
2021/06/06 00:38:22;;;;;;;47.05;35.92;;;;;;;13.35;100.00;102299.56;5105281;28;20024;-62
2021/06/06 00:40:47;;;;;;;46.17;35.25;;;;;;;13.41;100.00;102297.00;5102041;28;20028;-62
2021/06/06 00:43:13;;;;;;;46.00;35.20;;;;;;;13.29;100.00;102300.31;5104761;28;20024;-62
2021/06/06 00:45:39;;;;;;;46.05;36.15;;;;;;;13.29;100.00;102302.09;5103128;28;20062;-62
2021/06/06 00:48:07;;;;;;;45.97;34.97;;;;;;;13.38;100.00;102304.91;5103226;28;20051;-62
2021/06/06 00:50:39;;;;;;;48.35;36.85;;;;;;;13.30;100.00;102302.13;5103322;28;20450;-62
2021/06/06 00:53:11;;;;;;;46.03;36.25;;;;;;;13.29;100.00;102304.75;5102950;28;20036;-62
2021/06/06 00:55:39;;;;;;;48.00;36.80;;;;;;;13.37;100.00;102297.84;5103013;28;20054;-62
2021/06/06 00:58:09;;;;;;;48.88;37.35;;;;;;;13.36;100.00;102301.34;5103302;28;20032;-62
2021/06/06 01:00:48;;;;;;;51.40;40.08;;;;;;;13.45;100.00;102301.50;5103407;28;20103;-62
2021/06/06 01:03:17;;;;;;;53.38;39.28;;;;;;;13.36;100.00;102301.34;5103962;28;20039;-62
2021/06/06 01:06:07;;;;;;;50.90;38.60;;;;;;;13.40;100.00;102297.88;5102343;28;20027;-62
2021/06/06 01:08:33;;;;;;;54.60;39.83;;;;;;;13.33;100.00;102295.97;5100306;28;20028;-68
2021/06/06 01:11:24;;;;;;;52.40;40.08;;;;;;;13.35;100.00;102303.13;5104165;28;20064;-62
2021/06/06 01:13:55;;;;;;;52.03;38.22;;;;;;;13.31;100.00;102297.69;5082305;28;20488;-64
2021/06/06 01:16:32;;;;;;;50.35;37.97;;;;;;;13.34;100.00;102303.03;5086887;28;20489;-69
2021/06/06 01:18:59;;;;;;;50.95;36.58;;;;;;;13.49;100.00;102303.34;5087571;28;20032;-64
2021/06/06 01:21:40;;;;;;;53.22;37.97;;;;;;;13.46;100.00;102307.72;5090527;28;20043;-63
2021/06/06 01:24:19;;;;;;;53.00;38.50;;;;;;;13.38;100.00;102302.25;5089364;28;20042;-64
2021/06/06 01:26:56;;;;;;;53.50;39.92;;;;;;;13.31;100.00;102300.34;5090425;28;20032;-66
2021/06/06 01:29:36;;;;;;;50.67;38.75;;;;;;;13.26;100.00;102294.97;5090614;28;20028;-63
2021/06/06 01:32:18;;;;;;;53.92;39.20;;;;;;;13.30;100.00;102293.28;5090558;28;20043;-65
2021/06/06 01:34:50;;;;;;;51.30;38.08;;;;;;;13.29;100.00;102296.78;5090694;28;20061;-69
2021/06/06 01:37:19;;;;;;;;;;;;;;;13.44;100.00;102297.06;5090801;28;20449;-68
2021/06/06 01:39:49;;;;;;;49.80;37.88;;;;;;;13.29;100.00;102292.34;5090242;28;19965;-65
2021/06/06 01:42:29;;;;;;;50.90;37.08;;;;;;;13.33;100.00;102295.97;5090370;28;20446;-66
2021/06/06 01:44:59;;;;;;;50.75;37.17;;;;;;;13.28;100.00;102292.34;5086961;28;20044;-63
2021/06/06 01:47:27;;;;;;;52.10;38.47;;;;;;;13.28;100.00;102293.25;5090493;28;20544;-66
2021/06/06 01:49:57;;;;;;;51.15;37.50;;;;;;;13.31;100.00;102292.38;5090636;28;20051;-68
2021/06/06 01:52:27;;;;;;;52.10;37.90;;;;;;;13.31;100.00;102292.38;5092625;28;20054;-70
2021/06/06 01:54:54;;;;;;;51.03;37.58;;;;;;;13.33;100.00;102288.00;5104506;28;20040;-69
2021/06/06 01:57:22;;;;;;;50.13;37.05;;;;;;;13.37;100.00;102292.53;5096685;28;20107;-69
2021/06/06 01:59:50;;;;;;;53.50;40.03;;;;;;;13.29;100.00;102299.44;5103737;28;20487;-70
2021/06/06 02:02:17;;;;;;;52.80;37.63;;;;;;;13.36;100.00;102296.06;5101496;28;20032;-68
2021/06/06 02:04:42;;;;;;;52.75;39.55;;;;;;;13.31;100.00;102290.63;5103267;28;20134;-69
2021/06/06 02:07:23;;;;;;;54.63;39.10;;;;;;;13.30;100.00;102293.28;5102159;28;20490;-69
2021/06/06 02:10:09;;;;;;;52.90;38.53;;;;;;;13.33;100.00;102291.53;5104338;28;20070;-68
2021/06/06 02:12:38;;;;;;;53.65;38.65;;;;;;;13.31;100.00;102289.72;5100129;28;20032;-69
2021/06/06 02:15:08;;;;;;;52.72;39.92;;;;;;;13.16;100.00;102288.59;5102895;28;20043;-69
2021/06/06 02:17:34;;;;;;;51.83;39.47;;;;;;;13.22;100.00;102294.03;5100556;28;20040;-70
2021/06/06 02:20:03;;;;;;;56.58;40.20;;;;;;;13.25;100.00;102287.84;5103372;28;20039;-69
2021/06/06 02:22:30;;;;;;;56.38;42.65;;;;;;;13.25;100.00;102299.41;5101344;28;20024;-70
2021/06/06 02:24:57;;;;;;;55.45;40.30;;;;;;;13.17;100.00;102293.06;5103568;28;20182;-69
2021/06/06 02:27:31;;;;;;;55.90;41.72;;;;;;;13.26;100.00;102297.63;5100670;28;20025;-69
2021/06/06 02:30:15;;;;;;;57.13;41.30;;;;;;;13.24;100.00;102300.25;5103732;28;20057;-69
2021/06/06 02:33:19;;;;;;;59.80;42.05;;;;;;;13.31;100.00;102295.03;5102885;28;20032;-69
2021/06/06 02:35:53;;;;;;;58.90;42.78;;;;;;;13.29;100.00;102294.13;5104736;28;20040;-70
2021/06/06 02:38:42;;;;;;;56.58;42.25;;;;;;;13.44;100.00;102294.41;5103941;28;20471;-69
2021/06/06 02:41:18;;;;;;;62.15;45.38;;;;;;;13.32;100.00;102289.75;5103992;28;20032;-69
2021/06/06 02:44:01;;;;;;;58.75;41.95;;;;;;;13.43;100.00;102289.97;5104481;28;20412;-69
2021/06/06 02:46:27;;;;;;;;;;;;;;;13.39;100.00;102286.34;5101129;28;20102;-69
2021/06/06 02:49:05;;;;;;;60.25;43.67;;;;;;;13.31;100.00;102292.38;5107839;28;20269;-69
2021/06/06 02:51:36;;;;;;;59.30;41.67;;;;;;;13.35;100.00;102279.22;5101706;28;20052;-69
2021/06/06 02:54:07;;;;;;;61.25;44.28;;;;;;;13.23;100.00;102273.69;5106453;28;20027;-69
2021/06/06 02:56:37;;;;;;;61.25;44.80;;;;;;;13.14;100.00;102274.41;5104629;28;20064;-70
2021/06/06 02:59:08;;;;;;;62.78;44.70;;;;;;;13.16;100.00;102285.94;5106276;28;20028;-70
2021/06/06 03:01:46;;;;;;;64.00;45.05;;;;;;;13.24;100.00;102297.59;5105159;28;20056;-68
2021/06/06 03:04:16;;;;;;;64.32;47.30;;;;;;;13.12;100.00;102291.19;5104720;28;20030;-70
2021/06/06 03:06:55;;;;;;;64.55;47.30;;;;;;;12.99;100.00;102293.66;5104599;28;20032;-69
2021/06/06 03:09:21;;;;;;;66.55;46.75;;;;;;;12.84;100.00;102296.94;5099376;28;20541;-69
2021/06/06 03:11:50;;;;;;;66.18;47.75;;;;;;;13.03;100.00;102289.28;5106860;28;20110;-69
2021/06/06 03:14:20;;;;;;;65.35;48.75;;;;;;;12.91;100.00;102288.19;5103866;28;20029;-68
2021/06/06 03:17:08;;;;;;;64.65;44.92;;;;;;;13.01;100.00;102293.66;5106181;28;20023;-69
2021/06/06 03:19:42;;;;;;;60.20;44.33;;;;;;;12.95;100.00;102290.91;5102168;28;20020;-67
2021/06/06 03:22:10;;;;;;;59.03;43.47;;;;;;;12.93;100.00;102290.91;5104921;28;20595;-69
2021/06/06 03:24:44;;;;;;;63.03;46.35;;;;;;;12.94;100.00;102290.00;5104889;28;20024;-62
2021/06/06 03:27:12;;;;;;;59.47;43.13;;;;;;;12.99;100.00;102291.00;5104291;28;20454;-62
2021/06/06 03:30:25;;;;;;;54.08;40.20;;;;;;;13.34;97.64;102289.75;5104789;28;20063;-62
2021/06/06 03:32:53;;;;;;;57.22;41.70;;;;;;;13.00;98.74;102294.53;5064132;28;20119;-62
2021/06/06 03:35:19;;;;;;;56.67;41.42;;;;;;;12.97;99.36;102299.78;5060552;28;20515;-62
2021/06/06 03:37:44;;;;;;;55.58;41.03;;;;;;;12.96;100.00;102296.25;5062923;28;20045;-62
2021/06/06 03:40:10;;;;;;;53.85;37.92;;;;;;;12.90;100.00;102296.13;5061961;28;20116;-62
2021/06/06 03:42:37;;;;;;;54.45;39.58;;;;;;;12.96;99.79;102295.34;5061543;28;20065;-62
2021/06/06 03:45:05;;;;;;;57.35;42.95;;;;;;;12.82;100.00;102297.75;5062779;28;20047;-62
2021/06/06 03:47:31;;;;;;;56.30;40.80;;;;;;;12.91;100.00;102293.50;5060125;28;20037;-62
2021/06/06 03:49:56;;;;;;;55.38;41.67;;;;;;;12.95;100.00;102293.56;5063145;28;20058;-62
2021/06/06 03:52:21;;;;;;;58.50;41.90;;;;;;;12.94;99.19;102300.63;5060240;28;20133;-62
2021/06/06 03:54:47;;;;;;;55.15;39.20;;;;;;;12.98;98.11;102296.28;5062906;28;20025;-62
2021/06/06 03:57:12;;;;;;;55.83;41.20;;;;;;;12.84;100.00;102291.63;5060892;28;20029;-62
2021/06/06 03:59:37;;;;;;;55.47;40.95;;;;;;;12.88;99.74;102292.56;5061756;28;20531;-62
2021/06/06 04:02:04;;;;;;;56.60;42.33;;;;;;;12.79;100.00;102301.25;5062193;28;20151;-62
2021/06/06 04:04:29;;;;;;;54.78;40.53;;;;;;;12.76;100.00;102287.94;5060142;28;20052;-62
2021/06/06 04:06:55;;;;;;;58.72;43.60;;;;;;;12.74;100.00;102294.94;5063353;28;20109;-62
2021/06/06 04:09:20;;;;;;;53.42;39.08;;;;;;;12.66;100.00;102296.59;5088478;28;20146;-62
2021/06/06 04:11:45;;;;;;;54.67;39.70;;;;;;;12.72;100.00;102307.31;5105259;28;20076;-64
2021/06/06 04:14:11;;;;;;;56.22;40.22;;;;;;;12.65;100.00;102305.41;5103489;28;20028;-62
2021/06/06 04:16:37;;;;;;;48.28;35.22;;;;;;;12.82;98.94;102301.28;5103592;28;20073;-61
2021/06/06 04:19:04;;;;;;;45.85;32.40;;;;;;;12.79;97.92;102309.22;5104544;28;20432;-62
2021/06/06 04:21:31;;;;;;;48.80;34.92;;;;;;;12.69;100.00;102304.59;5102952;28;20356;-61
2021/06/06 04:23:56;;;;;;;53.83;39.15;;;;;;;12.61;100.00;102299.16;5105304;28;20046;-62
2021/06/06 04:26:23;;;;;;;53.35;39.50;;;;;;;12.63;100.00;102291.22;5101886;28;20032;-62
2021/06/06 04:28:49;;;;;;;51.88;38.15;;;;;;;12.69;100.00;102297.53;5105054;28;20488;-62
2021/06/06 04:31:16;;;;;;;52.70;38.63;;;;;;;12.73;100.00;102299.38;5102953;28;20066;-62
2021/06/06 04:33:41;;;;;;;50.95;37.22;;;;;;;12.76;100.00;102285.28;5103965;28;20032;-62
2021/06/06 04:36:07;;;;;;;51.03;36.38;;;;;;;12.78;99.76;102296.78;5104243;28;20057;-62
2021/06/06 04:38:33;;;;;;;51.30;37.67;;;;;;;12.66;100.00;102292.16;5102634;28;20028;-62
2021/06/06 04:41:02;;;;;;;55.42;40.63;;;;;;;12.64;100.00;102303.59;5104723;28;20096;-63
2021/06/06 04:43:27;;;;;;;56.15;40.33;;;;;;;12.72;100.00;102296.69;5101830;28;20023;-67
2021/06/06 04:45:54;;;;;;;54.53;40.83;;;;;;;12.71;100.00;102302.84;5105225;28;20038;-64
2021/06/06 04:48:24;;;;;;;58.22;43.13;;;;;;;12.61;100.00;102303.53;5101741;28;20028;-69
2021/06/06 04:50:50;;;;;;;56.95;42.00;;;;;;;12.73;100.00;102303.78;5104675;28;20100;-69
2021/06/06 04:53:16;;;;;;;56.03;41.72;;;;;;;12.82;100.00;102300.41;5102589;28;20032;-69
2021/06/06 04:55:43;;;;;;;50.08;34.97;;;;;;;12.86;98.21;102304.91;5103646;28;20035;-69
2021/06/06 04:58:18;;;;;;;50.53;37.22;;;;;;;12.82;100.00;102303.06;5103447;28;20028;-69
2021/06/06 05:00:44;;;;;;;51.90;38.35;;;;;;;12.82;99.80;102303.94;5103952;28;20383;-68
2021/06/06 05:03:11;;;;;;;48.08;34.15;;;;;;;12.65;100.00;102308.06;5103168;28;20015;-70
2021/06/06 05:05:37;;;;;;;44.50;30.98;;;;;;;12.85;98.05;102303.13;5102831;28;20124;-69
2021/06/06 05:08:03;;;;;;;42.58;29.75;;;;;;;12.86;98.34;102308.44;5104112;28;20106;-68
2021/06/06 05:10:33;;;;;;;41.53;27.67;;;;;;;12.89;97.33;102316.47;5101557;28;20463;-69
2021/06/06 05:12:58;;;;;;;43.15;29.00;;;;;;;12.88;96.27;102314.66;5104310;28;20027;-69
2021/06/06 05:15:24;;;;;;;39.78;26.50;;;;;;;12.96;96.81;102311.25;5101178;28;20386;-68
2021/06/06 05:17:52;;;;;;;39.17;26.48;;;;;;;12.77;97.15;102307.38;5104441;28;20031;-68
2021/06/06 05:20:22;;;;;;;37.10;24.25;;;;;;;12.86;96.67;102305.81;5101862;28;20028;-69
2021/06/06 05:22:47;;;;;;;39.33;25.67;;;;;;;12.91;96.19;102309.41;5104238;28;20023;-70
2021/06/06 05:25:13;;;;;;;39.05;24.70;;;;;;;12.88;95.50;102317.31;5100558;28;20092;-62
2021/06/06 05:27:39;;;;;;;39.35;25.10;;;;;;;12.91;95.19;102320.03;5102831;28;20449;-62
2021/06/06 05:30:08;;;;;;;40.28;25.70;;;;;;;12.90;96.57;102317.34;5103345;28;20099;-62
2021/06/06 05:32:34;;;;;;;37.75;25.77;;;;;;;12.94;96.11;102307.69;5101997;28;20028;-62
2021/06/06 05:34:59;;;;;;;38.72;25.13;;;;;;;12.89;96.79;102321.78;5103145;28;20020;-62
2021/06/06 05:37:25;;;;;;;36.85;23.88;;;;;;;12.94;95.49;102318.31;5101011;28;20052;-62
2021/06/06 05:39:50;;;;;;;36.13;23.27;;;;;;;12.93;96.02;102316.50;5102840;28;20499;-62
2021/06/06 05:42:15;;;;;;;38.47;24.98;;;;;;;12.96;95.16;102316.56;5101886;28;20147;-62
2021/06/06 05:44:41;;;;;;;37.92;24.02;;;;;;;13.02;95.30;102316.69;5102728;28;20068;-62
2021/06/06 05:47:08;;;;;;;36.08;22.75;;;;;;;13.05;93.67;102322.06;5093313;28;20489;-62
2021/06/06 05:49:33;;;;;;;38.88;24.73;;;;;;;12.99;95.49;102316.63;5103384;28;20040;-62
2021/06/06 05:51:59;;;;;;;35.30;23.35;;;;;;;13.09;94.15;102321.22;5102162;28;20055;-63
2021/06/06 05:54:24;;;;;;;38.47;24.23;;;;;;;13.13;94.48;102316.88;5101854;28;20544;-62
2021/06/06 05:56:49;;;;;;;36.05;23.38;;;;;;;13.20;94.58;102316.13;5104079;28;20020;-63
2021/06/06 05:59:15;;;;;;;36.42;23.80;;;;;;;13.25;94.43;102311.75;5100928;28;20455;-63
2021/06/06 06:01:40;;;;;;;35.58;23.38;;;;;;;13.34;92.72;102309.31;5102690;28;20063;-63
2021/06/06 06:04:06;;;;;;;36.95;24.05;;;;;;;13.38;92.07;102318.19;5101645;28;20112;-63
2021/06/06 06:06:31;;;;;;;36.22;23.00;;;;;;;13.44;90.72;102302.38;5102737;28;20106;-63
2021/06/06 06:08:56;;;;;;;35.75;23.25;;;;;;;13.49;90.35;102316.63;5103296;28;20081;-63
2021/06/06 06:11:23;;;;;;;36.45;24.13;;;;;;;13.58;91.29;102318.53;5105326;28;20471;-62
2021/06/06 06:13:50;;;;;;;35.97;23.60;;;;;;;13.63;90.73;102311.53;5107510;28;20049;-63
2021/06/06 06:16:17;;;;;;;37.95;23.58;;;;;;;13.80;88.88;102311.75;5103242;28;20032;-63
2021/06/06 06:18:43;;;;;;;36.20;23.50;;;;;;;13.71;88.82;102309.84;5100549;28;20017;-63
2021/06/06 06:21:12;;;;;;;35.22;23.35;;;;;;;13.75;88.89;102318.78;5107267;28;20028;-63
2021/06/06 06:23:38;;;;;;;37.05;24.05;;;;;;;13.76;87.18;102323.19;5105334;27;20118;-63
2021/06/06 06:26:04;;;;;;;34.78;22.23;;;;;;;13.85;86.78;102323.34;5107023;28;20466;-63
2021/06/06 06:28:29;;;;;;;35.80;22.65;;;;;;;13.87;86.73;102318.06;5105744;28;20034;-63
2021/06/06 06:30:55;;;;;;;33.53;21.25;;;;;;;13.93;85.02;102310.16;5104129;28;20119;-63
2021/06/06 06:33:20;;;;;;;34.38;22.77;;;;;;;13.97;85.92;102317.31;5107329;28;20094;-63
2021/06/06 06:35:46;;;;;;;35.00;22.65;;;;;;;14.08;85.01;102317.44;5104146;28;20526;-63
2021/06/06 06:38:12;;;;;;;33.47;21.88;;;;;;;14.17;83.71;102312.25;5107589;28;20054;-63
2021/06/06 06:40:38;;;;;;;34.15;22.17;;;;;;;14.20;84.69;102314.97;5104757;28;20080;-68
2021/06/06 06:43:04;;;;;;;32.10;20.20;;;;;;;14.15;83.70;102315.78;5106215;28;20393;-70
2021/06/06 06:45:34;;;;;;;33.83;21.38;;;;;;;13.95;84.93;102314.63;5105919;28;20058;-70
2021/06/06 06:48:14;;;;;;;33.00;20.23;;;;;;;13.89;85.70;102311.00;5104389;28;20036;-69
2021/06/06 06:50:40;;;;;;;31.95;18.92;;;;;;;13.93;83.26;102316.38;5104421;28;20028;-69
2021/06/06 06:53:05;;;;;;;31.08;18.50;;;;;;;13.90;83.03;102316.31;5106043;28;20040;-69
2021/06/06 06:55:31;;;;;;;31.45;19.73;;;;;;;13.85;84.07;102327.75;5105465;28;20027;-69
2021/06/06 06:57:59;;;;;;;31.63;19.05;;;;;;;13.87;83.66;102321.59;5104683;28;20028;-70
2021/06/06 07:00:46;;;;;;;31.05;18.55;;;;;;;14.01;82.21;102334.19;5106224;27;20028;-69
2021/06/06 07:03:15;;;;;;;29.52;17.77;;;;;;;14.04;81.53;102328.94;5107305;28;20036;-68
2021/06/06 07:05:42;;;;;;;31.65;18.42;;;;;;;14.05;81.16;102330.69;5104054;28;20032;-70
2021/06/06 07:08:10;;;;;;;29.08;17.55;;;;;;;14.11;81.49;102337.00;5106382;28;20024;-68
2021/06/06 07:10:38;;;;;;;30.05;18.67;;;;;;;14.17;80.38;102332.63;5104359;28;20051;-69
2021/06/06 07:13:04;;;;;;;30.65;18.38;;;;;;;14.24;80.87;102340.72;5105525;28;20035;-70
2021/06/06 07:15:30;;;;;;;30.77;18.13;;;;;;;14.34;79.80;102335.50;5105160;28;20043;-69
2021/06/06 07:17:55;;;;;;;28.83;18.35;;;;;;;14.44;78.79;102334.75;5104433;28;20459;-69
2021/06/06 07:20:25;;;;;;;29.23;18.25;;;;;;;14.54;79.90;102335.75;5105958;28;20476;-63
2021/06/06 07:22:50;;;;;;;33.00;18.00;;;;;;;14.72;78.40;102330.69;5102933;28;20020;-63
2021/06/06 07:25:17;;;;;;;31.50;18.65;;;;;;;14.86;78.41;102333.47;5106475;28;20043;-63
2021/06/06 07:27:44;;;;;;;30.35;18.27;;;;;;;14.93;76.30;102329.13;5095052;28;20393;-62
2021/06/06 07:30:15;;;;;;;30.67;18.65;;;;;;;14.96;76.77;102324.69;5106089;28;20106;-62
2021/06/06 07:32:40;;;;;;;32.28;18.88;;;;;;;14.85;76.05;102326.34;5103355;28;20032;-62
2021/06/06 07:35:09;;;;;;;30.80;18.38;;;;;;;14.88;76.77;102329.06;5105679;28;20032;-62
2021/06/06 07:37:34;;;;;;;30.88;18.95;;;;;;;14.88;76.61;102326.41;5104171;28;20059;-63
2021/06/06 07:40:00;;;;;;;30.77;18.75;;;;;;;14.82;77.37;102339.63;5104282;28;20055;-63
2021/06/06 07:42:26;;;;;;;33.17;19.88;;;;;;;14.67;77.10;102328.84;5105462;28;20438;-62
2021/06/06 07:44:51;;;;;;;31.63;18.63;;;;;;;14.59;79.05;102340.25;5103300;28;20467;-63
2021/06/06 07:47:40;;;;;;;31.65;19.23;;;;;;;14.72;78.65;102335.09;5106184;28;20024;-63
2021/06/06 07:50:06;;;;;;;31.77;18.55;;;;;;;14.73;78.60;102340.44;5101823;28;20032;-63
2021/06/06 07:52:35;;;;;;;29.88;17.67;;;;;;;14.80;76.01;102342.28;5091329;28;20044;-62
2021/06/06 07:55:01;;;;;;;29.92;17.10;;;;;;;14.90;76.25;102337.94;5091172;28;20084;-63
2021/06/06 07:57:26;;;;;;;30.55;18.27;;;;;;;14.92;76.23;102337.97;5090905;28;20031;-63
2021/06/06 07:59:52;;;;;;;31.65;18.63;;;;;;;15.06;76.69;102340.78;5095054;28;20116;-64
2021/06/06 08:02:17;;;;;;;29.83;17.10;;;;;;;15.29;75.36;102347.19;5089960;28;20074;-63
2021/06/06 08:04:42;;;;;;;28.65;17.05;;;;;;;15.57;74.66;102339.41;5091281;28;20040;-63
2021/06/06 08:07:07;;;;;;;29.85;16.92;;;;;;;15.87;72.59;102340.53;5090391;28;20028;-64
2021/06/06 08:09:33;;;;;;;27.25;15.32;;;;;;;16.03;69.84;102349.50;5089784;28;20032;-63
2021/06/06 08:11:58;;;;;;;29.98;15.63;;;;;;;16.30;69.46;102337.19;5091061;28;20020;-62
2021/06/06 08:14:23;;;;;;;27.90;15.95;;;;;;;16.68;68.77;102337.31;5089655;28;20029;-62
2021/06/06 08:16:49;;;;;;;28.05;15.95;;;;;;;16.79;67.76;102336.44;5089774;28;20119;-62
2021/06/06 08:19:14;;;;;;;26.25;14.85;;;;;;;16.77;67.53;102335.56;5089844;28;20402;-62
2021/06/06 08:21:44;;;;;;;26.77;14.35;;;;;;;16.90;67.15;102334.72;5092857;28;20093;-63
2021/06/06 08:24:10;;;;;;;26.23;14.95;;;;;;;17.04;65.79;102334.75;5091392;28;20457;-62
2021/06/06 08:26:35;;;;;;;26.63;14.57;;;;;;;17.25;65.63;102332.06;5092207;28;20031;-63
2021/06/06 08:29:02;;;;;;;26.17;14.57;;;;;;;17.28;65.75;102336.53;5092546;28;20670;-62
2021/06/06 08:31:31;;;;;;;26.95;15.63;;;;;;;16.80;67.04;102338.25;5089953;28;20040;-63
2021/06/06 08:33:57;;;;;;;27.13;15.73;;;;;;;16.41;67.61;102338.16;5093366;28;20035;-63
2021/06/06 08:36:29;;;;;;;26.77;14.82;;;;;;;16.65;68.39;102339.97;5093329;28;20386;-63
2021/06/06 08:38:57;;;;;;;25.45;13.68;;;;;;;17.37;66.42;102336.56;5091518;28;20020;-63
2021/06/06 08:41:27;;;;;;;25.20;13.73;;;;;;;17.86;63.96;102334.69;5091699;28;20107;-63
2021/06/06 08:44:15;;;;;;;25.10;13.20;;;;;;;18.02;63.74;102340.94;5092917;28;20024;-63
2021/06/06 08:47:10;;;;;;;25.92;13.88;;;;;;;18.22;64.24;102343.53;5091926;28;20031;-63
2021/06/06 08:49:43;;;;;;;25.00;12.90;;;;;;;18.42;63.30;102341.66;5094195;28;20490;-63
2021/06/06 08:52:50;;;;;;;24.75;12.75;;;;;;;18.55;61.22;102342.50;5088610;28;20048;-62
2021/06/06 08:55:49;;;;;;;24.08;12.98;;;;;;;18.42;63.19;102341.66;5042116;28;20136;-63
2021/06/06 08:58:32;;;;;;;25.27;12.45;;;;;;;18.75;61.01;102336.13;5033414;28;20048;-63
2021/06/06 09:01:03;;;;;;;25.25;12.98;;;;;;;19.04;60.47;102341.31;5030792;28;20051;-62
2021/06/06 09:03:30;;;;;;;24.48;12.63;;;;;;;19.17;59.77;102343.00;5033502;28;20033;-63
2021/06/06 09:06:01;;;;;;;24.65;12.82;;;;;;;19.59;60.13;102344.44;5037210;28;20064;-62
2021/06/06 09:08:30;;;;;;;23.10;11.73;;;;;;;19.95;57.96;102342.28;5043742;28;20041;-62
2021/06/06 09:10:59;;;;;;;22.95;12.07;;;;;;;20.10;56.38;102341.25;5041218;28;20033;-62
2021/06/06 09:13:27;;;;;;;23.27;11.30;;;;;;;20.62;56.06;102345.03;5041764;28;20116;-62
2021/06/06 09:15:58;;;;;;;23.27;11.52;;;;;;;21.17;54.92;102344.25;5035297;28;20033;-62
2021/06/06 09:18:26;;;;;;;23.52;11.40;;;;;;;21.51;53.96;102345.50;5035484;28;20041;-70
2021/06/06 09:20:53;;;;;;;22.80;11.18;;;;;;;21.84;52.26;102348.47;5043880;28;20086;-70
2021/06/06 09:23:31;;;;;;;23.17;11.25;;;;;;;22.12;52.31;102340.78;5039192;28;20146;-69
2021/06/06 09:26:10;;;;;;;23.33;11.35;;;;;;;22.24;52.29;102345.88;5041062;28;20045;-70
2021/06/06 09:28:38;;;;;;;22.40;11.32;;;;;;;22.01;51.44;102353.56;5037294;28;20044;-69
2021/06/06 09:31:08;;;;;;;22.67;10.82;;;;;;;22.18;51.30;102342.41;5052878;28;20036;-69
2021/06/06 09:33:42;;;;;;;22.80;10.63;;;;;;;22.42;51.37;102338.38;5091398;28;20031;-70
2021/06/06 09:36:25;;;;;;;22.50;10.98;;;;;;;21.93;51.20;102335.75;5091808;28;20034;-70
2021/06/06 09:39:13;;;;;;;21.52;10.85;;;;;;;21.53;51.91;102343.69;5091109;28;20386;-71
2021/06/06 09:41:42;;;;;;;21.67;10.68;;;;;;;21.51;51.86;102350.88;5048244;28;20045;-69
2021/06/06 09:44:20;;;;;;;21.90;10.68;;;;;;;21.35;52.34;102347.56;5049509;28;20083;-67
2021/06/06 09:46:50;;;;;;;21.27;10.68;;;;;;;21.74;52.74;102350.44;5065257;28;20504;-65
2021/06/06 09:49:35;;;;;;;22.10;10.55;;;;;;;22.27;52.14;102351.19;5045536;28;20542;-69
2021/06/06 09:52:27;;;;;;;21.65;10.48;;;;;;;22.53;51.36;102341.72;5062851;28;20052;-69
2021/06/06 09:54:55;;;;;;;21.27;10.25;;;;;;;22.77;49.85;102342.06;5060657;28;20040;-69
2021/06/06 09:57:20;;;;;;;20.88;9.80;;;;;;;23.31;48.00;102346.19;5064551;28;20025;-69
2021/06/06 09:59:45;;;;;;;21.58;10.00;;;;;;;23.81;48.26;102356.59;5062101;28;20040;-70
2021/06/06 10:02:11;;;;;;;21.95;11.15;;;;;;;23.51;47.27;102351.06;5065178;28;20427;-68
2021/06/06 10:04:39;;;;;;;22.13;10.77;;;;;;;23.13;48.06;102351.13;5062310;28;20043;-63
2021/06/06 10:07:14;;;;;;;21.25;10.18;;;;;;;23.53;47.84;102354.59;5065021;28;20032;-63
2021/06/06 10:09:51;;;;;;;21.98;10.50;;;;;;;23.35;46.98;102349.69;5057955;28;20209;-63
2021/06/06 10:12:40;;;;;;;21.50;10.32;;;;;;;22.48;48.59;102340.91;5058994;28;20056;-63
2021/06/06 10:15:18;;;;;;;20.80;10.02;;;;;;;22.12;52.11;102346.16;5062513;28;20094;-63
2021/06/06 10:17:56;;;;;;;21.73;10.27;;;;;;;22.51;49.19;102340.84;5061974;28;20107;-63
2021/06/06 10:20:27;;;;;;;21.27;9.85;;;;;;;23.97;46.61;102339.03;5103030;28;20035;-63
2021/06/06 10:23:10;;;;;;;21.02;10.02;;;;;;;24.27;46.55;102333.66;5106965;28;20031;-62
2021/06/06 10:25:50;;;;;;;21.83;10.30;;;;;;;23.92;46.16;102343.69;5107396;28;20140;-62
2021/06/06 10:28:21;;;;;;;21.13;9.95;;;;;;;23.66;45.78;102342.56;5101046;28;20096;-62
2021/06/06 10:31:29;;;;;;;21.00;9.90;;;;;;;23.35;47.41;102344.31;5107342;28;20170;-61
2021/06/06 10:34:24;;;;;;;20.88;10.13;;;;;;;22.45;49.83;102343.69;5051173;28;20025;-62
2021/06/06 10:36:49;;;;;;;22.13;11.45;;;;;;;22.14;49.65;102341.59;5053231;28;20112;-62
2021/06/06 10:39:22;;;;;;;21.92;10.77;;;;;;;22.78;48.74;102343.84;5053389;28;20548;-62
2021/06/06 10:41:56;;;;;;;22.30;11.18;;;;;;;23.35;48.37;102341.63;5053154;28;20096;-63
2021/06/06 10:44:32;;;;;;;21.13;10.50;;;;;;;24.06;47.00;102339.69;5052909;28;20087;-63
2021/06/06 10:47:04;;;;;;;21.55;10.27;;;;;;;24.89;45.56;102351.59;5052931;28;20029;-63
2021/06/06 10:49:37;;;;;;;21.40;10.13;;;;;;;24.95;43.71;102341.53;5052983;28;20032;-68
2021/06/06 10:52:08;;;;;;;21.42;10.27;;;;;;;24.81;43.07;102340.13;5052922;28;20041;-66
2021/06/06 10:54:48;;;;;;;21.13;10.95;;;;;;;24.38;45.43;102344.16;5052794;28;20399;-68
2021/06/06 10:57:30;;;;;;;22.20;12.30;;;;;;;23.82;46.34;102334.94;5052724;28;20120;-69
2021/06/06 11:00:01;;;;;;;23.45;13.48;;;;;;;23.20;47.22;102332.97;5050692;28;20029;-63
2021/06/06 11:02:32;;;;;;;23.08;13.30;;;;;;;22.50;47.99;102339.09;5052685;28;20036;-63
2021/06/06 11:05:01;;;;;;;23.17;13.68;;;;;;;22.04;50.06;102338.22;5086142;28;20089;-62
2021/06/06 11:07:38;;;;;;;23.20;13.30;;;;;;;22.08;50.57;102328.28;5105508;27;20023;-63
2021/06/06 11:10:15;;;;;;;22.85;13.70;;;;;;;22.20;49.86;102330.69;5105864;28;20494;-63
2021/06/06 11:12:42;;;;;;;23.33;14.27;;;;;;;22.14;49.41;102320.06;5099201;28;20473;-63
2021/06/06 11:15:32;;;;;;;23.88;14.23;;;;;;;22.53;50.19;102324.63;5103382;28;20020;-63
2021/06/06 11:18:08;;;;;;;23.17;12.43;;;;;;;22.85;49.77;102323.91;5099205;28;20020;-67
2021/06/06 11:20:36;;;;;;;22.90;12.98;;;;;;;23.32;47.25;102319.16;5092468;28;20034;-63
2021/06/06 11:23:17;;;;;;;22.55;12.48;;;;;;;23.57;47.56;102321.22;5088476;28;20020;-63